Time;durP1;ratioP1;P1;durP2;ratioP2;P2;SDS_P1;SDS_P2;PMS_P1;PMS_P2;Temp;Humidity;BMP_temperature;BMP_pressure;BME280_temperature;BME280_humidity;BME280_pressure;Samples;Min_cycle;Max_cycle;Signal;HPM_P1;HPM_P2
2023/03/21 00:01:12;;;;;;;80.88;32.38;;;8.40;99.90;;;;;;5103647;28;20028;-65
2023/03/21 00:03:38;;;;;;;74.95;32.42;;;8.50;99.90;;;;;;5106973;28;20047;-65
2023/03/21 00:06:10;;;;;;;89.13;34.58;;;8.50;99.90;;;;;;5104129;28;20044;-65
2023/03/21 00:08:36;;;;;;;75.30;32.20;;;8.40;99.90;;;;;;5096536;28;20051;-65
2023/03/21 00:11:04;;;;;;;80.13;32.30;;;8.50;99.90;;;;;;5097316;28;20043;-65
2023/03/21 00:13:37;;;;;;;93.60;34.65;;;8.50;99.90;;;;;;5104170;28;20437;-65
2023/03/21 00:16:14;;;;;;;86.32;32.63;;;8.40;99.90;;;;;;5100728;28;20032;-65
2023/03/21 00:18:41;;;;;;;94.55;34.40;;;8.50;99.90;;;;;;5093529;28;20505;-65
2023/03/21 00:21:08;;;;;;;97.57;37.20;;;8.50;99.90;;;;;;5101128;28;20063;-65
2023/03/21 00:23:35;;;;;;;84.85;34.55;;;8.50;99.90;;;;;;5103568;28;20070;-65
2023/03/21 00:26:01;;;;;;;97.88;37.47;;;8.40;99.90;;;;;;5096243;28;21516;-65
2023/03/21 00:28:27;;;;;;;88.00;33.58;;;8.50;99.90;;;;;;5097133;28;20051;-65
2023/03/21 00:30:59;;;;;;;90.78;35.35;;;8.50;99.90;;;;;;5074215;28;20048;-65
2023/03/21 00:33:26;;;;;;;87.55;33.22;;;8.50;99.90;;;;;;5104066;28;20044;-65
2023/03/21 00:35:52;;;;;;;95.78;35.58;;;8.50;99.90;;;;;;5081000;28;20070;-65
2023/03/21 00:38:20;;;;;;;100.05;35.50;;;8.40;99.90;;;;;;5094300;28;20031;-66
2023/03/21 00:40:46;;;;;;;116.95;38.00;;;8.50;99.90;;;;;;5105779;28;20416;-65
2023/03/21 00:43:13;;;;;;;106.05;37.22;;;8.50;99.90;;;;;;5089985;28;20032;-65
2023/03/21 00:45:39;;;;;;;100.72;35.63;;;8.40;99.90;;;;;;5093802;28;20122;-65
2023/03/21 00:48:05;;;;;;;125.65;38.80;;;8.40;99.90;;;;;;5095996;28;20553;-65
2023/03/21 00:50:31;;;;;;;117.03;39.28;;;8.40;99.90;;;;;;5096092;28;20048;-65
2023/03/21 00:52:59;;;;;;;110.90;38.72;;;8.40;99.90;;;;;;5101593;28;20039;-65
2023/03/21 00:55:25;;;;;;;109.03;37.47;;;8.50;99.90;;;;;;5105175;28;20047;-65
2023/03/21 00:57:51;;;;;;;107.07;36.58;;;8.50;99.90;;;;;;5100453;28;20208;-65
2023/03/21 01:00:17;;;;;;;93.30;34.00;;;8.30;99.90;;;;;;5092397;28;20480;-66
2023/03/21 01:02:56;;;;;;;94.07;34.05;;;8.40;99.90;;;;;;5094877;28;21192;-66
2023/03/21 01:08:13;;;;;;;101.07;36.75;;;8.50;99.90;;;;;;5097707;28;20411;-66
2023/03/21 01:10:41;;;;;;;104.25;34.92;;;8.50;99.90;;;;;;5100858;28;20096;-65
2023/03/21 01:13:09;;;;;;;120.40;38.35;;;8.50;99.90;;;;;;5095774;28;20074;-65
2023/03/21 01:15:35;;;;;;;109.40;36.38;;;8.50;99.90;;;;;;5083255;28;20081;-66
2023/03/21 01:18:01;;;;;;;103.45;36.05;;;8.50;99.90;;;;;;5101945;28;20484;-66
2023/03/21 01:20:28;;;;;;;100.43;33.50;;;8.50;99.90;;;;;;5102906;28;20052;-66
2023/03/21 01:22:54;;;;;;;107.85;34.20;;;8.50;99.90;;;;;;5103844;28;20062;-65
2023/03/21 01:25:20;;;;;;;99.03;34.53;;;8.50;99.90;;;;;;5100340;28;20172;-65
2023/03/21 01:27:46;;;;;;;119.40;38.97;;;8.60;99.90;;;;;;5101582;28;20122;-65
2023/03/21 01:30:12;;;;;;;116.95;36.80;;;8.60;99.90;;;;;;5104432;28;20039;-66
2023/03/21 01:32:37;;;;;;;120.90;36.60;;;8.60;99.90;;;;;;5079110;28;20039;-66
2023/03/21 01:35:03;;;;;;;118.18;37.72;;;8.60;99.90;;;;;;5104345;28;20420;-65
2023/03/21 01:37:31;;;;;;;114.03;37.65;;;8.60;99.90;;;;;;5081681;28;20467;-66
2023/03/21 01:39:57;;;;;;;103.35;37.50;;;8.60;99.90;;;;;;5078929;28;20036;-65
2023/03/21 01:42:22;;;;;;;100.90;34.30;;;8.60;99.90;;;;;;5099878;28;20046;-66
2023/03/21 01:44:56;;;;;;;113.38;37.45;;;8.60;99.90;;;;;;5090443;28;20075;-66
2023/03/21 01:47:22;;;;;;;95.00;34.45;;;8.60;99.90;;;;;;5091973;28;20047;-67
2023/03/21 01:49:52;;;;;;;96.57;34.03;;;8.70;99.90;;;;;;5103130;28;20035;-66
2023/03/21 02:05:17;;;;;;;105.38;34.53;;;8.70;99.90;;;;;;5098889;28;20057;-66
2023/03/21 02:07:43;;;;;;;90.75;32.03;;;8.70;99.90;;;;;;5089668;28;20039;-67
2023/03/21 02:10:12;;;;;;;103.25;33.80;;;8.70;99.90;;;;;;5098930;28;20039;-67
2023/03/21 02:12:38;;;;;;;88.80;30.45;;;8.80;99.90;;;;;;5077789;28;20040;-68
2023/03/21 02:15:06;;;;;;;85.80;29.38;;;8.80;99.90;;;;;;5101576;28;20038;-66
2023/03/21 02:17:39;;;;;;;75.38;26.83;;;8.80;99.90;;;;;;5090225;28;20489;-66
2023/03/21 02:20:13;;;;;;;73.13;26.70;;;8.80;99.90;;;;;;5099516;28;20568;-66
2023/03/21 02:23:12;;;;;;;74.22;28.40;;;8.80;99.90;;;;;;5098408;28;20146;-66
2023/03/21 02:26:06;;;;;;;69.13;26.50;;;8.80;99.90;;;;;;5099526;28;20039;-66
2023/03/21 02:28:33;;;;;;;70.90;27.50;;;8.80;99.90;;;;;;5102740;28;20048;-66
2023/03/21 02:31:03;;;;;;;69.50;27.25;;;8.80;99.90;;;;;;5098542;28;20063;-66
2023/03/21 02:33:44;;;;;;;58.95;25.38;;;8.90;99.90;;;;;;5099625;28;20488;-66
2023/03/21 02:36:35;;;;;;;69.97;26.77;;;8.90;99.90;;;;;;5068632;28;20080;-66
2023/03/21 02:39:12;;;;;;;59.03;25.25;;;8.90;99.90;;;;;;5094025;28;20036;-66
2023/03/21 02:42:07;;;;;;;60.28;25.63;;;8.90;99.90;;;;;;5091710;28;20457;-66
2023/03/21 02:44:49;;;;;;;61.28;26.10;;;8.90;99.90;;;;;;5097883;28;20028;-66
2023/03/21 02:47:21;;;;;;;54.28;23.52;;;8.90;99.90;;;;;;5090034;28;20054;-66
2023/03/21 02:50:16;;;;;;;52.70;22.10;;;8.90;99.90;;;;;;5098707;28;20039;-66
2023/03/21 02:52:46;;;;;;;48.22;21.65;;;8.90;99.90;;;;;;5104023;28;20462;-66
2023/03/21 02:55:21;;;;;;;52.47;21.38;;;8.90;99.90;;;;;;5081881;28;20457;-66
2023/03/21 02:57:49;;;;;;;48.85;21.88;;;8.90;99.90;;;;;;5102588;28;20038;-66
2023/03/21 03:00:25;;;;;;;49.70;20.63;;;8.90;99.90;;;;;;5082423;28;20081;-66
2023/03/21 03:02:51;;;;;;;49.50;22.08;;;8.90;99.90;;;;;;5100622;28;20142;-66
2023/03/21 03:05:30;;;;;;;48.22;21.58;;;8.90;99.90;;;;;;5103591;28;20152;-66
2023/03/21 03:07:56;;;;;;;41.58;18.42;;;8.90;99.90;;;;;;5081444;28;20048;-66
2023/03/21 03:10:48;;;;;;;44.05;19.05;;;8.90;99.90;;;;;;5104169;28;21753;-66
2023/03/21 03:13:38;;;;;;;38.95;17.55;;;8.90;99.90;;;;;;5094572;28;20039;-66
2023/03/21 03:16:19;;;;;;;39.45;19.17;;;8.90;99.90;;;;;;5106628;28;20036;-66
2023/03/21 03:18:57;;;;;;;37.72;17.33;;;8.90;99.90;;;;;;5105323;28;20039;-66
2023/03/21 03:21:38;;;;;;;40.17;18.35;;;8.90;99.90;;;;;;5103180;28;20070;-66
2023/03/21 03:24:16;;;;;;;44.67;19.38;;;8.90;99.90;;;;;;5100254;28;20039;-66
2023/03/21 03:27:14;;;;;;;43.80;19.63;;;8.90;99.90;;;;;;5103595;28;20472;-66
2023/03/21 03:29:43;;;;;;;46.95;19.70;;;8.80;99.90;;;;;;5102672;28;20083;-65
2023/03/21 03:32:11;;;;;;;40.63;19.00;;;8.90;99.90;;;;;;5102733;28;20039;-66
2023/03/21 03:34:42;;;;;;;36.97;17.20;;;8.90;99.90;;;;;;5079367;28;20121;-66
2023/03/21 03:37:13;;;;;;;44.53;19.98;;;8.90;99.90;;;;;;5095045;28;20047;-66
2023/03/21 03:40:04;;;;;;;45.58;19.75;;;8.90;99.90;;;;;;5097693;28;20024;-66
2023/03/21 03:42:36;;;;;;;43.30;18.55;;;8.80;99.90;;;;;;5100619;28;20123;-66
2023/03/21 03:45:05;;;;;;;44.40;19.13;;;8.80;99.90;;;;;;5103275;28;20043;-66
2023/03/21 03:47:33;;;;;;;45.92;20.00;;;8.80;99.90;;;;;;5104810;28;20036;-66
2023/03/21 03:50:02;;;;;;;51.40;20.67;;;8.80;99.90;;;;;;5093745;28;20053;-66
2023/03/21 03:52:51;;;;;;;47.97;19.80;;;8.80;99.90;;;;;;5100636;28;20065;-66
2023/03/21 03:55:20;;;;;;;51.88;21.13;;;8.80;99.90;;;;;;5103249;28;20035;-66
2023/03/21 03:57:47;;;;;;;49.38;20.45;;;8.80;99.90;;;;;;5094080;28;20090;-66
2023/03/21 04:00:15;;;;;;;46.58;21.70;;;8.80;99.90;;;;;;5102800;28;20048;-66
2023/03/21 04:02:44;;;;;;;44.53;20.55;;;8.80;99.90;;;;;;5105039;28;20154;-66
2023/03/21 04:05:11;;;;;;;48.42;22.48;;;8.80;99.90;;;;;;5104435;28;20036;-66
2023/03/21 04:07:36;;;;;;;53.35;22.02;;;8.80;99.90;;;;;;5095535;28;20322;-66
2023/03/21 04:10:03;;;;;;;54.25;22.42;;;8.80;99.90;;;;;;5094908;28;20502;-66
2023/03/21 04:12:30;;;;;;;45.97;21.40;;;8.80;99.90;;;;;;5092528;28;20490;-66
2023/03/21 04:14:55;;;;;;;44.85;22.33;;;8.80;99.90;;;;;;5096934;28;20436;-66
2023/03/21 04:17:21;;;;;;;52.30;22.58;;;8.80;99.90;;;;;;5079479;28;20056;-66
2023/03/21 04:19:47;;;;;;;48.80;22.05;;;8.80;99.90;;;;;;5103179;28;20155;-66
2023/03/21 04:22:13;;;;;;;49.42;22.75;;;8.80;99.90;;;;;;5104088;28;20043;-66
2023/03/21 04:24:39;;;;;;;45.50;21.60;;;8.80;99.90;;;;;;5094254;28;20032;-66
2023/03/21 04:27:05;;;;;;;47.55;22.40;;;8.80;99.90;;;;;;5102458;28;20035;-66
2023/03/21 04:29:31;;;;;;;46.55;21.75;;;8.80;99.90;;;;;;5089608;28;20197;-66
2023/03/21 04:31:58;;;;;;;51.80;23.55;;;8.80;99.90;;;;;;5102577;28;20035;-65
2023/03/21 04:34:26;;;;;;;54.53;23.58;;;8.80;99.90;;;;;;5102528;28;20164;-66
2023/03/21 04:36:54;;;;;;;54.95;24.55;;;8.80;99.90;;;;;;5103484;28;20141;-66
2023/03/21 04:39:20;;;;;;;50.85;24.02;;;8.80;99.90;;;;;;5094840;28;20068;-66
2023/03/21 04:41:47;;;;;;;57.35;25.80;;;8.80;99.90;;;;;;5104693;28;20027;-66
2023/03/21 04:44:14;;;;;;;67.97;25.92;;;8.80;99.90;;;;;;5101605;28;20403;-65
2023/03/21 04:46:41;;;;;;;56.58;24.90;;;8.80;99.90;;;;;;5103464;28;20035;-66
2023/03/21 04:49:07;;;;;;;63.72;27.52;;;8.40;99.90;;;;;;5104214;28;20043;-66
2023/03/21 04:51:33;;;;;;;60.05;26.63;;;8.70;99.90;;;;;;5100746;28;20043;-66
2023/03/21 04:53:59;;;;;;;83.10;30.92;;;8.70;99.90;;;;;;5092504;28;20194;-66
2023/03/21 04:56:32;;;;;;;63.83;27.33;;;8.70;99.90;;;;;;5101717;28;20540;-66
2023/03/21 04:59:00;;;;;;;77.00;29.40;;;8.80;99.90;;;;;;5097678;28;20044;-66
2023/03/21 05:01:29;;;;;;;74.93;29.17;;;8.70;99.90;;;;;;5101038;28;20484;-66
2023/03/21 05:04:00;;;;;;;74.60;28.02;;;8.70;99.90;;;;;;5095691;28;20090;-66
2023/03/21 05:06:26;;;;;;;71.80;29.08;;;8.70;99.90;;;;;;5104295;28;20118;-66
2023/03/21 05:08:58;;;;;;;68.53;27.10;;;8.70;99.90;;;;;;5078144;28;20027;-66
2023/03/21 05:11:25;;;;;;;76.05;28.13;;;8.70;99.90;;;;;;5078630;28;20036;-66
2023/03/21 05:13:52;;;;;;;78.82;27.23;;;8.70;99.90;;;;;;5100855;28;20077;-66
2023/03/21 05:16:18;;;;;;;75.03;29.48;;;8.70;99.90;;;;;;5100793;28;20043;-66
2023/03/21 05:18:44;;;;;;;60.15;23.88;;;8.70;99.90;;;;;;5080408;28;20039;-66
2023/03/21 05:21:09;;;;;;;67.28;26.83;;;8.70;99.90;;;;;;5075965;28;20143;-66
2023/03/21 05:23:39;;;;;;;62.83;24.20;;;8.70;99.90;;;;;;5104717;28;20446;-66
2023/03/21 05:26:06;;;;;;;70.32;26.20;;;8.70;99.90;;;;;;5093065;28;20031;-66
2023/03/21 05:28:35;;;;;;;63.47;26.13;;;8.70;99.90;;;;;;5101333;28;20438;-66
2023/03/21 05:31:03;;;;;;;65.47;26.25;;;8.70;99.90;;;;;;5101276;28;20492;-67
2023/03/21 05:33:30;;;;;;;68.07;24.92;;;8.70;99.90;;;;;;5101979;28;20111;-66
2023/03/21 05:35:56;;;;;;;75.53;27.13;;;8.70;99.90;;;;;;5100431;28;20561;-66
2023/03/21 05:38:22;;;;;;;61.63;26.52;;;8.70;99.90;;;;;;5096747;28;20044;-66
2023/03/21 05:40:49;;;;;;;75.30;28.13;;;8.60;99.90;;;;;;5098241;28;20310;-66
2023/03/21 05:43:15;;;;;;;65.00;24.98;;;8.60;99.90;;;;;;5092976;28;20040;-66
2023/03/21 05:45:41;;;;;;;71.03;25.42;;;8.60;99.90;;;;;;5068608;28;20048;-66
2023/03/21 05:48:07;;;;;;;65.30;26.52;;;8.70;99.90;;;;;;5093450;28;20477;-66
2023/03/21 05:50:32;;;;;;;66.82;25.42;;;8.60;99.90;;;;;;5077945;28;20047;-66
2023/03/21 05:52:58;;;;;;;69.88;25.63;;;8.70;99.90;;;;;;5077438;28;20051;-66
2023/03/21 05:55:24;;;;;;;63.15;25.90;;;8.60;99.90;;;;;;5090300;28;20100;-66
2023/03/21 05:57:49;;;;;;;66.32;25.73;;;8.60;99.90;;;;;;5101858;28;20043;-66
2023/03/21 06:00:16;;;;;;;63.00;24.13;;;8.60;99.90;;;;;;5096738;28;20067;-67
2023/03/21 06:02:43;;;;;;;57.45;24.42;;;8.60;99.90;;;;;;5077586;28;20043;-66
2023/03/21 06:05:09;;;;;;;53.25;23.63;;;8.70;99.90;;;;;;5095780;28;20032;-67
2023/03/21 06:07:35;;;;;;;58.60;23.10;;;8.60;99.90;;;;;;5089509;28;20074;-66
2023/03/21 06:10:03;;;;;;;58.33;24.27;;;8.60;99.90;;;;;;5093014;28;20047;-66
2023/03/21 06:12:29;;;;;;;66.03;24.20;;;8.60;99.90;;;;;;5092014;28;20485;-66
2023/03/21 06:14:55;;;;;;;63.00;24.23;;;8.60;99.90;;;;;;5090994;28;20101;-66
2023/03/21 06:17:21;;;;;;;62.22;24.25;;;8.60;99.90;;;;;;5075375;28;20039;-67
2023/03/21 06:19:46;;;;;;;63.97;24.15;;;8.60;99.90;;;;;;5093388;28;20050;-66
2023/03/21 06:22:12;;;;;;;60.80;23.20;;;8.60;99.90;;;;;;5093303;28;20291;-66
2023/03/21 06:24:41;;;;;;;58.05;22.52;;;8.70;99.90;;;;;;5095508;28;20146;-66
2023/03/21 06:27:07;;;;;;;56.25;23.65;;;8.60;99.90;;;;;;5091848;28;20318;-66
2023/03/21 06:29:32;;;;;;;63.58;24.38;;;8.70;99.90;;;;;;5073816;28;20127;-66
2023/03/21 06:32:01;;;;;;;52.08;22.45;;;8.70;99.90;;;;;;5098591;28;20036;-67
2023/03/21 06:34:27;;;;;;;53.35;22.00;;;8.70;99.90;;;;;;5102756;28;20450;-66
2023/03/21 06:36:55;;;;;;;51.67;21.95;;;8.70;99.90;;;;;;5093774;28;20322;-67
2023/03/21 06:39:21;;;;;;;52.25;22.20;;;8.70;99.90;;;;;;5097835;28;20722;-66
2023/03/21 06:41:46;;;;;;;46.58;21.42;;;8.70;99.90;;;;;;5088849;28;20111;-67
2023/03/21 06:44:12;;;;;;;51.95;22.05;;;8.70;99.90;;;;;;5100241;28;20042;-66
2023/03/21 06:46:38;;;;;;;44.03;20.00;;;8.70;99.90;;;;;;5092388;28;20161;-66
2023/03/21 06:49:04;;;;;;;46.72;19.95;;;8.70;99.90;;;;;;5098276;28;20036;-66
2023/03/21 06:51:29;;;;;;;55.13;21.77;;;8.70;99.90;;;;;;5092870;28;20032;-66
2023/03/21 06:53:55;;;;;;;53.70;20.85;;;8.80;99.90;;;;;;5101003;28;20028;-66
2023/03/21 06:56:21;;;;;;;48.67;19.30;;;8.70;99.90;;;;;;5100221;28;20035;-66
2023/03/21 06:58:47;;;;;;;49.40;20.85;;;8.70;99.90;;;;;;5094664;28;20051;-66
2023/03/21 07:01:13;;;;;;;39.80;19.10;;;8.80;99.90;;;;;;5078640;28;20496;-66
2023/03/21 07:03:39;;;;;;;35.58;18.20;;;8.80;99.90;;;;;;5093367;28;20028;-66
2023/03/21 07:06:10;;;;;;;45.70;20.30;;;8.80;99.90;;;;;;5089866;28;20038;-66
2023/03/21 07:08:40;;;;;;;45.05;19.27;;;8.90;99.90;;;;;;5089593;28;20610;-66
2023/03/21 07:11:06;;;;;;;34.65;17.67;;;8.90;99.90;;;;;;5093376;28;20127;-66
2023/03/21 07:13:32;;;;;;;31.77;15.70;;;8.80;99.90;;;;;;5093751;28;20515;-67
2023/03/21 07:15:58;;;;;;;30.25;15.82;;;8.90;99.90;;;;;;5093507;28;20039;-66
2023/03/21 07:18:24;;;;;;;35.55;17.13;;;8.90;99.90;;;;;;5107655;28;20114;-66
2023/03/21 07:20:50;;;;;;;35.25;17.27;;;8.90;99.90;;;;;;5059461;28;20143;-66
2023/03/21 07:23:21;;;;;;;35.97;16.65;;;8.90;99.90;;;;;;5092258;28;20040;-66
2023/03/21 07:25:48;;;;;;;28.75;14.93;;;8.90;99.90;;;;;;5092931;28;20116;-66
2023/03/21 07:28:15;;;;;;;30.98;15.73;;;8.90;99.90;;;;;;5089229;28;20035;-66
2023/03/21 07:30:42;;;;;;;30.02;14.95;;;8.90;99.90;;;;;;5099411;28;20040;-66
2023/03/21 07:33:07;;;;;;;30.75;15.43;;;8.90;99.90;;;;;;5087898;28;20044;-66
2023/03/21 07:35:35;;;;;;;28.80;15.75;;;8.90;99.90;;;;;;5075820;28;20039;-66
2023/03/21 07:38:04;;;;;;;27.33;14.75;;;8.90;99.90;;;;;;5072352;28;20040;-66
2023/03/21 07:40:31;;;;;;;26.27;14.77;;;8.90;99.90;;;;;;5093948;28;20720;-66
2023/03/21 07:42:57;;;;;;;28.23;15.18;;;8.90;99.90;;;;;;5088703;28;20419;-66
2023/03/21 07:45:25;;;;;;;26.77;14.45;;;8.90;99.90;;;;;;5081207;28;20040;-66
2023/03/21 07:47:52;;;;;;;29.80;14.65;;;8.80;99.90;;;;;;5082677;28;20141;-67
2023/03/21 07:50:18;;;;;;;26.50;13.95;;;8.80;99.90;;;;;;5078847;28;20062;-66
2023/03/21 07:52:45;;;;;;;30.23;16.23;;;8.90;99.90;;;;;;5082417;28;20042;-66
2023/03/21 07:55:11;;;;;;;30.42;16.17;;;8.80;99.90;;;;;;5080891;28;20044;-66
2023/03/21 07:57:36;;;;;;;27.63;15.13;;;8.90;99.90;;;;;;5085159;28;20127;-67
2023/03/21 08:00:07;;;;;;;27.25;15.63;;;8.80;99.90;;;;;;5083487;28;20108;-66
2023/03/21 08:02:34;;;;;;;28.10;15.50;;;8.90;99.90;;;;;;5082494;28;20043;-66
2023/03/21 08:05:00;;;;;;;27.50;15.77;;;8.90;99.90;;;;;;5082042;28;20051;-66
2023/03/21 08:07:29;;;;;;;34.50;16.13;;;8.90;99.90;;;;;;5087717;28;20424;-66
2023/03/21 08:09:55;;;;;;;28.40;14.90;;;8.90;99.90;;;;;;5081546;28;20056;-67
2023/03/21 08:12:24;;;;;;;26.92;14.07;;;8.90;99.90;;;;;;5066114;28;20048;-66
2023/03/21 08:14:50;;;;;;;34.00;16.75;;;8.80;99.90;;;;;;5084348;28;20055;-66
2023/03/21 08:17:15;;;;;;;33.40;17.15;;;8.90;99.90;;;;;;5064762;28;20048;-67
2023/03/21 08:19:41;;;;;;;29.60;15.90;;;8.90;99.90;;;;;;5084969;28;20047;-66
2023/03/21 08:22:07;;;;;;;32.67;17.23;;;8.80;99.90;;;;;;5070107;28;20047;-67
2023/03/21 08:24:33;;;;;;;28.75;15.77;;;8.90;99.90;;;;;;5085630;27;20036;-66
2023/03/21 08:27:01;;;;;;;27.42;14.55;;;8.90;99.90;;;;;;5083365;28;20047;-66
2023/03/21 08:29:32;;;;;;;27.17;15.25;;;8.90;99.90;;;;;;5084914;28;20412;-66
2023/03/21 08:31:58;;;;;;;26.15;15.48;;;8.90;99.90;;;;;;5082213;28;20056;-67
2023/03/21 08:34:25;;;;;;;32.88;16.42;;;8.90;99.90;;;;;;5062982;28;20050;-67
2023/03/21 08:36:51;;;;;;;34.97;16.15;;;8.90;99.90;;;;;;5072462;28;20303;-66
2023/03/21 08:39:16;;;;;;;30.38;15.45;;;9.00;99.90;;;;;;5075343;28;20047;-66
2023/03/21 08:41:42;;;;;;;29.35;15.52;;;9.00;99.90;;;;;;5074251;28;20500;-67
2023/03/21 08:44:09;;;;;;;29.60;15.65;;;9.00;99.90;;;;;;5092490;28;20028;-66
2023/03/21 08:46:35;;;;;;;19.70;12.48;;;9.10;99.90;;;;;;5078079;28;20438;-66
2023/03/21 08:49:01;;;;;;;31.13;15.13;;;9.10;99.90;;;;;;5075954;28;20040;-66
2023/03/21 08:51:26;;;;;;;26.02;14.13;;;9.10;99.90;;;;;;5078802;28;20052;-67
2023/03/21 08:53:52;;;;;;;23.92;13.57;;;9.10;99.90;;;;;;5090843;28;20122;-67
2023/03/21 08:56:18;;;;;;;24.15;14.02;;;9.10;99.90;;;;;;5098232;28;20046;-67
2023/03/21 08:58:44;;;;;;;31.05;14.40;;;9.10;99.90;;;;;;5093736;28;20388;-66
2023/03/21 09:01:14;;;;;;;29.52;16.00;;;9.10;99.90;;;;;;5093972;28;20039;-66
2023/03/21 09:03:40;;;;;;;33.13;16.25;;;9.10;99.90;;;;;;5091362;28;20556;-67
2023/03/21 09:06:09;;;;;;;33.00;16.50;;;9.10;99.90;;;;;;5094381;28;20032;-66
2023/03/21 09:08:36;;;;;;;33.65;17.38;;;9.20;99.90;;;;;;5091620;28;20035;-66
2023/03/21 09:11:02;;;;;;;34.63;16.60;;;9.20;99.90;;;;;;5089476;28;20112;-66
2023/03/21 09:13:28;;;;;;;38.10;17.60;;;9.20;99.90;;;;;;5081104;28;20457;-66
2023/03/21 09:15:56;;;;;;;31.58;16.23;;;9.20;99.90;;;;;;5096156;28;20119;-66
2023/03/21 09:18:44;;;;;;;27.75;14.63;;;9.20;99.90;;;;;;5092965;28;20571;-66
2023/03/21 09:21:12;;;;;;;23.75;14.98;;;9.20;99.90;;;;;;5091731;28;20272;-66
2023/03/21 09:23:41;;;;;;;28.52;15.65;;;9.20;99.90;;;;;;5094749;28;20040;-66
2023/03/21 09:26:08;;;;;;;27.10;14.13;;;9.20;99.90;;;;;;5076442;28;20554;-66
2023/03/21 09:28:36;;;;;;;31.75;14.77;;;9.20;99.90;;;;;;5091346;28;20036;-66
2023/03/21 09:31:03;;;;;;;34.15;16.95;;;9.20;99.90;;;;;;5094329;28;20040;-66
2023/03/21 09:33:30;;;;;;;32.92;15.82;;;9.20;99.90;;;;;;5069267;28;20100;-66
2023/03/21 09:35:57;;;;;;;29.85;14.07;;;9.30;99.90;;;;;;5097341;28;20131;-66
2023/03/21 09:38:29;;;;;;;26.92;14.18;;;9.30;99.90;;;;;;5104731;28;20544;-66
2023/03/21 09:41:22;;;;;;;34.40;17.73;;;9.20;99.90;;;;;;5074338;28;20564;-66
2023/03/21 09:44:26;;;;;;;30.13;15.90;;;9.30;99.90;;;;;;5094811;28;20032;-66
2023/03/21 09:46:58;;;;;;;34.33;15.60;;;9.30;99.90;;;;;;5090593;28;20036;-67
2023/03/21 09:49:30;;;;;;;31.02;16.02;;;9.30;99.90;;;;;;5090042;28;20028;-66
2023/03/21 09:51:58;;;;;;;31.13;15.50;;;9.30;99.90;;;;;;5103749;28;20377;-67
2023/03/21 09:54:32;;;;;;;34.83;16.52;;;9.30;99.90;;;;;;5090455;28;20044;-66
2023/03/21 09:57:27;;;;;;;30.98;15.30;;;9.40;99.90;;;;;;5074855;28;20032;-66
2023/03/21 09:59:55;;;;;;;25.08;15.02;;;9.50;99.90;;;;;;5093500;28;20096;-66
2023/03/21 10:02:37;;;;;;;33.78;15.15;;;9.50;99.90;;;;;;5090627;28;20092;-66
2023/03/21 10:05:12;;;;;;;27.77;15.13;;;9.60;99.90;;;;;;5090609;28;20442;-67
2023/03/21 10:07:50;;;;;;;24.45;13.70;;;9.60;99.90;;;;;;5091290;28;20036;-66
2023/03/21 10:10:40;;;;;;;29.20;15.25;;;9.60;99.90;;;;;;5089492;28;20040;-67
2023/03/21 10:13:13;;;;;;;28.23;14.52;;;9.60;99.90;;;;;;5090444;28;20485;-67
2023/03/21 10:15:39;;;;;;;30.83;14.63;;;9.60;99.90;;;;;;5091550;28;20040;-66
2023/03/21 10:18:07;;;;;;;26.98;13.98;;;9.60;99.90;;;;;;5072572;28;20032;-66
2023/03/21 10:20:37;;;;;;;25.50;14.30;;;9.60;99.90;;;;;;5091540;28;20040;-66
2023/03/21 10:23:06;;;;;;;30.40;15.63;;;9.60;99.90;;;;;;5091436;28;20048;-67
2023/03/21 10:25:36;;;;;;;30.33;16.25;;;9.50;99.90;;;;;;5072645;28;20480;-67
2023/03/21 10:28:06;;;;;;;27.83;15.13;;;9.50;99.90;;;;;;5075542;28;20132;-66
2023/03/21 10:30:53;;;;;;;26.40;14.48;;;9.60;99.90;;;;;;5080735;28;21632;-66
2023/03/21 10:33:24;;;;;;;29.83;14.52;;;9.50;99.90;;;;;;5061126;28;20054;-66
2023/03/21 10:35:54;;;;;;;28.27;15.90;;;9.50;99.90;;;;;;5078561;28;20412;-66
2023/03/21 10:38:23;;;;;;;26.98;16.08;;;9.50;99.90;;;;;;5076682;28;20301;-66
2023/03/21 10:40:49;;;;;;;25.05;13.80;;;9.50;99.90;;;;;;5078488;28;20107;-66
2023/03/21 10:43:36;;;;;;;31.00;15.85;;;9.50;99.90;;;;;;5059771;28;20043;-66
2023/03/21 10:46:15;;;;;;;27.15;15.02;;;9.50;99.90;;;;;;5079077;28;20044;-67
2023/03/21 10:48:45;;;;;;;27.15;15.43;;;9.50;99.90;;;;;;5079268;28;20036;-66
2023/03/21 10:51:18;;;;;;;28.52;15.30;;;9.60;99.90;;;;;;5077372;28;20104;-66
2023/03/21 10:53:56;;;;;;;33.33;15.43;;;9.60;99.90;;;;;;5076191;28;20043;-66
2023/03/21 10:56:28;;;;;;;28.35;15.32;;;9.70;99.90;;;;;;5079404;28;20046;-66
2023/03/21 10:58:57;;;;;;;29.02;15.73;;;9.70;99.90;;;;;;5081078;28;20050;-66
2023/03/21 11:01:39;;;;;;;31.70;15.60;;;9.70;99.90;;;;;;5077232;28;20594;-66
2023/03/21 11:04:18;;;;;;;32.30;14.60;;;9.80;99.90;;;;;;5076722;28;20048;-66
2023/03/21 11:06:50;;;;;;;30.02;16.58;;;9.70;99.90;;;;;;5078165;28;20539;-67
2023/03/21 11:09:20;;;;;;;28.67;15.45;;;9.70;99.90;;;;;;5078401;28;20523;-67
2023/03/21 11:12:09;;;;;;;37.63;16.50;;;9.80;99.90;;;;;;5077059;28;20511;-66
2023/03/21 11:14:47;;;;;;;29.55;15.40;;;9.80;99.90;;;;;;5066630;28;20400;-67
2023/03/21 11:17:15;;;;;;;25.58;14.98;;;9.80;99.90;;;;;;5084040;28;20043;-67
2023/03/21 11:20:10;;;;;;;27.70;15.52;;;9.80;99.90;;;;;;5079946;28;20086;-67
2023/03/21 11:22:42;;;;;;;26.48;15.18;;;9.90;99.90;;;;;;5082362;28;21276;-67
2023/03/21 11:25:38;;;;;;;24.23;15.05;;;9.90;99.90;;;;;;5082735;28;20035;-67
2023/03/21 11:28:13;;;;;;;27.38;13.55;;;10.00;99.90;;;;;;5061246;28;20047;-67
2023/03/21 11:30:53;;;;;;;26.50;13.63;;;10.10;99.90;;;;;;5081057;28;20100;-66
2023/03/21 11:33:21;;;;;;;27.45;12.50;;;10.10;99.90;;;;;;5082158;28;20371;-67
2023/03/21 11:36:15;;;;;;;23.58;12.73;;;10.10;99.90;;;;;;5062531;28;20718;-66
2023/03/21 11:38:41;;;;;;;24.77;12.73;;;10.10;99.90;;;;;;5075667;28;20404;-67
2023/03/21 11:41:07;;;;;;;16.77;11.10;;;10.20;99.90;;;;;;5079278;28;20039;-66
2023/03/21 11:43:38;;;;;;;22.05;11.55;;;10.30;99.90;;;;;;5093907;28;20040;-66
2023/03/21 11:46:04;;;;;;;22.63;11.25;;;10.40;99.90;;;;;;5101865;28;20097;-67
2023/03/21 11:48:37;;;;;;;23.67;11.00;;;10.50;99.90;;;;;;5100386;28;20043;-66
2023/03/21 11:51:13;;;;;;;17.95;9.38;;;10.60;99.90;;;;;;5099352;28;20048;-66
2023/03/21 11:53:57;;;;;;;18.35;8.90;;;10.60;99.90;;;;;;5091895;28;20083;-66
2023/03/21 11:56:32;;;;;;;16.45;10.05;;;10.70;99.90;;;;;;5099445;28;20047;-66
2023/03/21 11:59:22;;;;;;;20.05;10.27;;;10.80;99.90;;;;;;5094081;28;20051;-66
2023/03/21 12:02:17;;;;;;;17.67;9.30;;;10.80;99.90;;;;;;5105805;28;20035;-66
2023/03/21 12:04:51;;;;;;;21.58;9.02;;;10.90;99.90;;;;;;5095267;28;20067;-66
2023/03/21 12:07:38;;;;;;;14.10;9.13;;;10.90;99.90;;;;;;5101805;28;20032;-66
2023/03/21 12:10:10;;;;;;;14.13;8.40;;;10.80;99.90;;;;;;5094485;28;20040;-66
2023/03/21 12:12:53;;;;;;;15.90;8.85;;;10.80;99.90;;;;;;5093652;28;20042;-66
2023/03/21 12:15:38;;;;;;;17.55;8.25;;;10.80;99.90;;;;;;5092640;28;20038;-66
2023/03/21 12:18:12;;;;;;;16.88;8.75;;;10.80;99.90;;;;;;5075122;28;20129;-66
2023/03/21 12:20:57;;;;;;;16.92;8.73;;;10.80;99.90;;;;;;5092764;28;20441;-66
2023/03/21 12:23:51;;;;;;;16.92;8.00;;;10.80;99.90;;;;;;5103020;28;20187;-66
2023/03/21 12:26:27;;;;;;;13.32;8.32;;;10.90;99.90;;;;;;5092476;28;20086;-66
2023/03/21 12:29:05;;;;;;;15.23;8.98;;;11.00;99.90;;;;;;5092166;28;20039;-66
2023/03/21 12:32:08;;;;;;;12.63;7.80;;;11.10;99.90;;;;;;5091720;28;20502;-66
2023/03/21 12:34:52;;;;;;;13.65;7.53;;;11.20;99.90;;;;;;5093662;28;20044;-66
2023/03/21 12:37:27;;;;;;;15.10;7.97;;;11.20;99.90;;;;;;5093175;28;20112;-66
2023/03/21 12:40:11;;;;;;;11.98;8.00;;;11.10;99.90;;;;;;5092876;28;20040;-65
2023/03/21 12:43:06;;;;;;;15.63;7.82;;;11.20;99.90;;;;;;5096667;28;20089;-66
2023/03/21 12:45:37;;;;;;;14.70;8.40;;;11.10;99.90;;;;;;5077972;28;20127;-65
2023/03/21 12:48:35;;;;;;;15.48;7.68;;;11.20;99.90;;;;;;5097936;28;20035;-66
2023/03/21 12:51:03;;;;;;;13.30;7.60;;;11.20;99.90;;;;;;5102715;28;20039;-66
2023/03/21 12:53:44;;;;;;;12.15;7.53;;;11.30;99.90;;;;;;5089471;28;20040;-65
2023/03/21 12:56:17;;;;;;;14.40;6.68;;;11.30;99.90;;;;;;5094935;28;20071;-65
2023/03/21 12:59:08;;;;;;;12.93;6.63;;;11.20;99.90;;;;;;5092567;28;20036;-65
2023/03/21 13:01:37;;;;;;;12.63;7.32;;;11.10;99.90;;;;;;5092488;28;20042;-66
2023/03/21 13:04:16;;;;;;;13.52;7.47;;;11.10;99.90;;;;;;5092535;28;20119;-65
2023/03/21 13:06:44;;;;;;;12.10;7.03;;;11.10;99.90;;;;;;5094867;28;20039;-65
2023/03/21 13:09:26;;;;;;;16.58;7.75;;;11.10;99.90;;;;;;5097789;28;20036;-65
2023/03/21 13:11:57;;;;;;;14.27;7.15;;;11.10;99.90;;;;;;5104604;28;20116;-65